createdAt,value
2022-09-07T00:01:15.686Z,99943.50
2022-09-07T00:03:43.154Z,99932.00
2022-09-07T00:06:13.091Z,99953.25
2022-09-07T00:08:43.952Z,99934.00
2022-09-07T00:11:15.670Z,99923.97
2022-09-07T00:13:46.100Z,99932.19
2022-09-07T00:16:22.641Z,99914.41
2022-09-07T00:18:53.959Z,99935.63
2022-09-07T00:21:21.602Z,99951.56
2022-09-07T00:23:50.665Z,99931.94
2022-09-07T00:26:21.865Z,99934.41
2022-09-07T00:28:51.029Z,99916.28
2022-09-07T00:31:23.083Z,99933.91
2022-09-07T00:33:54.434Z,99919.09
2022-09-07T00:36:23.451Z,99915.56
2022-09-07T00:38:53.486Z,99921.22
2022-09-07T00:41:22.116Z,99905.13
2022-09-07T00:43:55.649Z,99897.34
2022-09-07T00:46:34.031Z,99883.66
2022-09-07T00:53:32.000Z,99906.53
2022-09-07T00:56:00.133Z,99896.31
2022-09-07T00:58:55.078Z,99917.03
2022-09-07T01:01:22.609Z,99906.03
2022-09-07T01:03:52.666Z,99880.50
2022-09-07T01:06:26.770Z,99909.34
2022-09-07T01:09:00.402Z,99915.41
2022-09-07T01:11:27.568Z,99886.72
2022-09-07T01:13:55.707Z,99892.63
2022-09-07T01:16:32.170Z,99902.66
2022-09-07T01:19:20.169Z,99906.94
2022-09-07T01:22:08.716Z,99899.91
2022-09-07T01:24:42.552Z,99883.78
2022-09-07T01:27:35.523Z,99898.19
2022-09-07T01:30:09.784Z,99900.66
2022-09-07T01:33:10.013Z,99896.22
2022-09-07T01:35:43.365Z,99889.81
2022-09-07T01:38:25.554Z,99869.56
2022-09-07T01:41:30.512Z,99889.59
2022-09-07T01:44:11.264Z,99892.88
2022-09-07T01:46:54.062Z,99882.75
2022-09-07T01:49:27.513Z,99889.31
2022-09-07T01:52:03.122Z,99870.53
2022-09-07T01:54:34.872Z,99875.69
2022-09-07T01:57:09.428Z,99882.75
2022-09-07T01:59:43.414Z,99857.34
2022-09-07T02:02:16.935Z,99869.81
2022-09-07T02:04:52.662Z,99872.09
2022-09-07T02:08:04.892Z,99851.13
2022-09-07T02:10:41.269Z,99864.63
2022-09-07T02:13:18.675Z,99880.28
2022-09-07T02:15:55.203Z,99875.91
2022-09-07T02:18:28.222Z,99861.44
2022-09-07T02:20:59.775Z,99888.75
2022-09-07T02:23:33.342Z,99847.81
2022-09-07T02:26:05.043Z,99862.34
2022-09-07T02:30:03.320Z,99874.91
2022-09-07T02:32:30.585Z,99859.97
2022-09-07T02:35:05.463Z,99871.31
2022-09-07T02:37:34.515Z,99849.38
2022-09-07T02:40:05.006Z,99834.84
2022-09-07T02:42:34.570Z,99857.06
2022-09-07T02:45:05.744Z,99850.06
2022-09-07T02:47:40.225Z,99876.44
2022-09-07T02:50:34.571Z,99866.88
2022-09-07T02:53:04.773Z,99872.03
2022-09-07T02:56:54.116Z,99859.13
2022-09-07T02:59:45.832Z,99850.28
2022-09-07T03:02:31.916Z,99850.91
2022-09-07T03:05:05.299Z,99837.47
2022-09-07T03:07:44.401Z,99841.75
2022-09-07T03:10:14.100Z,99836.88
2022-09-07T03:12:45.307Z,99852.25
2022-09-07T03:15:22.248Z,99835.97
2022-09-07T03:17:54.271Z,99868.25
2022-09-07T03:20:22.520Z,99839.19
2022-09-07T03:22:51.382Z,99819.09
2022-09-07T03:25:19.185Z,99855.50
2022-09-07T03:27:48.959Z,99824.66
2022-09-07T03:30:16.380Z,99838.56
2022-09-07T03:32:43.762Z,99826.81
2022-09-07T03:35:11.561Z,99814.47
2022-09-07T03:37:39.382Z,99804.09
2022-09-07T03:40:09.556Z,99804.31
2022-09-07T03:42:37.333Z,99816.09
2022-09-07T03:45:07.815Z,99798.56
2022-09-07T03:47:37.800Z,99792.34
2022-09-07T03:50:06.539Z,99807.56
2022-09-07T03:52:35.231Z,99800.94
2022-09-07T03:55:05.469Z,99835.53
2022-09-07T04:02:02.380Z,99816.16
2022-09-07T04:04:29.603Z,99797.41
2022-09-07T04:07:02.664Z,99832.63
2022-09-07T04:09:30.354Z,99823.28
2022-09-07T04:11:57.700Z,99790.97
2022-09-07T04:14:25.135Z,99792.50
2022-09-07T04:16:52.540Z,99780.56
2022-09-07T04:19:55.061Z,99799.44
2022-09-07T04:22:54.390Z,99788.72
2022-09-07T04:25:51.545Z,99818.66
2022-09-07T04:28:22.714Z,99814.44
2022-09-07T04:30:54.887Z,99774.22
2022-09-07T04:33:25.286Z,99782.38
2022-09-07T04:35:55.903Z,99805.59
2022-09-07T04:38:24.598Z,99803.91
2022-09-07T04:41:03.080Z,99774.91
2022-09-07T04:43:48.428Z,99799.63
2022-09-07T04:46:21.950Z,99811.75
2022-09-07T04:50:10.965Z,99803.22
2022-09-07T04:52:41.422Z,99790.56
2022-09-07T04:55:16.602Z,99777.47
2022-09-07T04:57:49.830Z,99765.34
2022-09-07T05:00:17.696Z,99791.09
2022-09-07T05:02:45.020Z,99778.03
2022-09-07T05:05:12.480Z,99780.81
2022-09-07T05:07:40.526Z,99793.00
2022-09-07T05:10:08.344Z,99766.88
2022-09-07T05:12:36.001Z,99777.78
2022-09-07T05:15:03.541Z,99780.34
2022-09-07T05:17:31.397Z,99767.22
2022-09-07T05:19:58.725Z,99764.31
2022-09-07T05:22:25.833Z,99785.56
2022-09-07T05:24:52.967Z,99778.66
2022-09-07T05:27:20.265Z,99778.41
2022-09-07T05:30:03.845Z,99785.53
2022-09-07T05:32:32.346Z,99785.00
2022-09-07T05:34:59.441Z,99777.78
2022-09-07T05:37:26.819Z,99792.78
2022-09-07T05:39:57.298Z,99785.94
2022-09-07T05:42:24.619Z,99780.22
2022-09-07T05:44:51.784Z,99785.06
2022-09-07T05:47:19.088Z,99789.28
2022-09-07T05:49:46.435Z,99749.91
2022-09-07T05:52:13.807Z,99771.78
2022-09-07T05:54:41.059Z,99762.09
2022-09-07T05:57:11.513Z,99765.59
2022-09-07T05:59:38.923Z,99783.88
2022-09-07T06:02:07.304Z,99784.50
2022-09-07T06:04:35.801Z,99784.06
2022-09-07T06:07:21.191Z,99774.78
2022-09-07T06:12:36.667Z,99770.56
2022-09-07T06:15:05.690Z,99767.41
2022-09-07T06:17:34.115Z,99766.81
2022-09-07T06:20:01.282Z,99776.19
2022-09-07T06:22:31.135Z,99753.91
2022-09-07T06:24:58.862Z,99761.03
2022-09-07T06:27:26.354Z,99763.97
2022-09-07T06:29:53.402Z,99776.38
2022-09-07T06:35:08.576Z,99775.84
2022-09-07T06:37:38.452Z,99767.19
2022-09-07T06:40:06.234Z,99760.19
2022-09-07T06:42:33.681Z,99755.44
2022-09-07T06:45:00.954Z,99781.31
2022-09-07T06:47:28.547Z,99760.09
2022-09-07T06:49:55.733Z,99761.56
2022-09-07T06:52:25.425Z,99738.47
2022-09-07T06:57:27.355Z,99746.59
2022-09-07T06:59:55.358Z,99747.81
2022-09-07T07:02:22.498Z,99768.88
2022-09-07T07:04:50.474Z,99740.22
2022-09-07T07:07:17.814Z,99760.34
2022-09-07T07:09:45.154Z,99762.13
2022-09-07T07:12:12.466Z,99755.41
2022-09-07T07:14:42.681Z,99762.78
2022-09-07T07:17:13.798Z,99772.00
2022-09-07T07:19:41.036Z,99742.25
2022-09-07T07:22:23.741Z,99738.31
2022-09-07T07:24:56.545Z,99742.41
2022-09-07T07:27:27.621Z,99742.75
2022-09-07T07:29:54.891Z,99726.47
2022-09-07T07:32:22.227Z,99725.34
2022-09-07T07:34:49.323Z,99730.81
2022-09-07T07:37:17.420Z,99737.88
2022-09-07T07:42:32.950Z,99753.41
2022-09-07T07:47:52.466Z,99747.81
2022-09-07T07:50:35.117Z,99740.31
2022-09-07T07:55:50.396Z,99731.66
2022-09-07T07:58:19.738Z,99712.44
2022-09-07T08:00:56.173Z,99704.84
2022-09-07T08:03:26.555Z,99703.69
2022-09-07T08:05:55.932Z,99721.66
2022-09-07T08:08:25.356Z,99719.81
2022-09-07T08:10:55.317Z,99707.47
2022-09-07T08:13:23.528Z,99716.63
2022-09-07T08:15:50.933Z,99719.81
2022-09-07T08:18:18.505Z,99725.28
2022-09-07T08:20:47.266Z,99709.06
2022-09-07T08:23:16.006Z,99691.78
2022-09-07T08:25:52.108Z,99701.09
2022-09-07T08:28:23.721Z,99699.84
2022-09-07T08:30:50.982Z,99712.69
2022-09-07T08:33:21.226Z,99704.38
2022-09-07T08:36:00.606Z,99708.63
2022-09-07T08:38:30.763Z,99694.53
2022-09-07T08:40:59.055Z,99703.88
2022-09-07T08:43:58.330Z,99687.81
2022-09-07T08:46:41.155Z,99705.56
2022-09-07T08:49:28.046Z,99702.22
2022-09-07T08:52:04.371Z,99704.00
2022-09-07T08:54:36.432Z,99710.38
2022-09-07T08:57:27.253Z,99674.31
2022-09-07T09:00:10.459Z,99695.22
2022-09-07T09:02:43.504Z,99682.56
2022-09-07T09:05:28.058Z,99708.47
2022-09-07T09:08:29.112Z,99697.28
2022-09-07T09:11:06.285Z,99673.53
2022-09-07T09:14:04.501Z,99691.25
2022-09-07T09:16:53.337Z,99694.50
2022-09-07T09:19:42.007Z,99701.63
2022-09-07T09:22:22.962Z,99701.50
2022-09-07T09:25:06.213Z,99711.34
2022-09-07T09:27:45.937Z,99689.03
2022-09-07T09:30:34.340Z,99676.25
2022-09-07T09:33:23.142Z,99697.56
2022-09-07T09:36:26.343Z,99683.25
2022-09-07T09:39:08.959Z,99707.94
2022-09-07T09:41:57.378Z,99688.91
2022-09-07T09:44:44.518Z,99669.16
2022-09-07T09:47:37.100Z,99694.84
2022-09-07T09:53:43.570Z,99672.28
2022-09-07T09:56:18.093Z,99651.44
2022-09-07T10:06:03.703Z,99672.41
2022-09-07T10:08:42.530Z,99665.22
2022-09-07T10:12:07.598Z,99683.78
2022-09-07T10:14:45.229Z,99678.56
2022-09-07T10:17:50.445Z,99692.88
2022-09-07T10:20:57.318Z,99668.28
2022-09-07T10:23:55.803Z,99651.72
2022-09-07T10:30:07.130Z,99681.59
2022-09-07T10:33:15.604Z,99687.03
2022-09-07T10:36:34.625Z,99688.56
2022-09-07T10:40:08.952Z,99702.69
2022-09-07T10:43:22.290Z,99679.19
2022-09-07T10:46:56.376Z,99696.22
2022-09-07T10:49:18.703Z,99698.63
2022-09-07T10:52:17.336Z,99666.22
2022-09-07T10:55:02.089Z,99675.16
2022-09-07T10:57:59.850Z,99702.38
2022-09-07T11:00:48.746Z,99664.31
2022-09-07T11:03:52.223Z,99668.72
2022-09-07T11:06:58.059Z,99671.75
2022-09-07T11:10:15.029Z,99686.63
2022-09-07T11:13:13.542Z,99702.72
2022-09-07T11:15:51.499Z,99713.44
2022-09-07T11:18:44.418Z,99686.78
2022-09-07T11:24:41.362Z,99713.03
2022-09-07T11:27:57.768Z,99713.59
2022-09-07T11:30:39.696Z,99697.03
2022-09-07T11:36:50.966Z,99702.91
2022-09-07T11:39:41.382Z,99681.81
2022-09-07T11:42:44.109Z,99728.00
2022-09-07T11:45:15.303Z,99708.63
2022-09-07T11:48:32.770Z,99674.75
2022-09-07T11:51:45.399Z,99713.28
2022-09-07T11:58:33.776Z,99697.66
2022-09-07T12:02:08.825Z,99688.81
2022-09-07T12:05:46.699Z,99690.88
2022-09-07T12:08:44.579Z,99692.16
2022-09-07T12:14:02.523Z,99688.28
2022-09-07T12:16:41.623Z,99667.09
2022-09-07T12:19:47.481Z,99664.59
2022-09-07T12:22:25.730Z,99647.03
2022-09-07T12:25:43.121Z,99641.63
2022-09-07T12:29:02.375Z,99684.25
2022-09-07T12:36:24.936Z,99681.16
2022-09-07T12:39:49.286Z,99655.16
2022-09-07T12:42:57.299Z,99651.78
2022-09-07T12:45:45.166Z,99674.63
2022-09-07T12:48:30.373Z,99670.94
2022-09-07T12:54:46.437Z,99648.38
2022-09-07T12:58:03.321Z,99661.75
2022-09-07T13:01:22.568Z,99638.94
2022-09-07T13:04:33.129Z,99665.44
2022-09-07T13:11:34.392Z,99645.03
2022-09-07T13:14:16.968Z,99646.22
2022-09-07T13:19:54.586Z,99643.06
2022-09-07T13:22:49.794Z,99630.16
2022-09-07T13:26:01.071Z,99640.69
2022-09-07T13:30:01.591Z,99608.03
2022-09-07T13:35:47.919Z,99650.50
2022-09-07T13:39:27.419Z,99630.69
2022-09-07T13:42:04.592Z,99615.91
2022-09-07T13:45:01.691Z,99668.91
2022-09-07T13:48:10.914Z,99614.81
2022-09-07T13:51:10.977Z,99624.50
2022-09-07T13:54:42.613Z,99639.84
2022-09-07T13:58:49.348Z,99643.22
2022-09-07T14:01:05.770Z,99611.25
2022-09-07T14:04:37.637Z,99633.19
2022-09-07T14:07:25.861Z,99602.66
2022-09-07T14:10:28.535Z,99608.72
2022-09-07T14:13:17.611Z,99606.69
2022-09-07T14:15:51.239Z,99630.13
2022-09-07T14:18:31.673Z,99603.66
2022-09-07T14:21:01.953Z,99616.91
2022-09-07T14:23:40.145Z,99618.81
2022-09-07T14:26:19.503Z,99627.50
2022-09-07T14:28:59.829Z,99621.66
2022-09-07T14:31:34.765Z,99607.41
2022-09-07T14:34:02.936Z,99604.19
2022-09-07T14:36:45.830Z,99591.94
2022-09-07T14:39:19.942Z,99600.28
2022-09-07T14:41:51.238Z,99609.00
2022-09-07T14:44:36.312Z,99624.56
2022-09-07T14:47:52.761Z,99620.63
2022-09-07T14:50:34.044Z,99588.38
2022-09-07T14:56:08.301Z,99639.88
2022-09-07T14:58:55.891Z,99615.72
2022-09-07T15:02:03.114Z,99600.09
2022-09-07T15:05:55.497Z,99621.94
2022-09-07T15:09:52.681Z,99629.72
2022-09-07T15:12:39.223Z,99589.91
2022-09-07T15:16:01.571Z,99602.56
2022-09-07T15:19:37.080Z,99579.72
2022-09-07T15:22:23.389Z,99617.00
2022-09-07T15:25:17.604Z,99620.25
2022-09-07T15:27:58.739Z,99615.97
2022-09-07T15:34:14.181Z,99598.97
2022-09-07T15:43:28.920Z,99628.03
2022-09-07T15:46:07.733Z,99590.09
2022-09-07T15:49:05.293Z,99591.09
2022-09-07T15:52:06.615Z,99589.56
2022-09-07T15:55:41.348Z,99607.88
2022-09-07T15:58:12.210Z,99616.66
2022-09-07T16:04:10.952Z,99595.31
2022-09-07T16:08:24.640Z,99614.72
2022-09-07T16:09:31.406Z,99659.63
2022-09-07T16:15:12.674Z,99622.25
2022-09-07T16:18:05.804Z,99638.28
2022-09-07T16:21:28.516Z,99615.84
2022-09-07T16:24:33.074Z,99621.84
2022-09-07T16:27:21.474Z,99627.06
2022-09-07T16:30:34.835Z,99628.19
2022-09-07T16:33:06.171Z,99638.28
2022-09-07T16:37:11.613Z,99640.09
2022-09-07T16:38:48.571Z,99636.06
2022-09-07T16:41:27.373Z,99646.25
2022-09-07T16:43:55.148Z,99660.94
2022-09-07T16:46:27.155Z,99673.16
2022-09-07T16:49:01.149Z,99668.78
2022-09-07T16:51:33.862Z,99648.44
2022-09-07T16:54:08.254Z,99644.91
2022-09-07T16:56:39.077Z,99665.25
2022-09-07T16:59:18.709Z,99677.53
2022-09-07T17:01:49.187Z,99670.13
2022-09-07T17:04:22.243Z,99667.06
2022-09-07T17:06:59.761Z,99677.03
2022-09-07T17:13:40.545Z,99671.69
2022-09-07T17:16:08.661Z,99647.69
2022-09-07T17:21:39.276Z,99675.66
2022-09-07T17:24:08.363Z,99687.94
2022-09-07T17:26:36.286Z,99682.41
2022-09-07T17:29:04.705Z,99672.28
2022-09-07T17:34:33.109Z,99695.56
2022-09-07T17:37:03.982Z,99668.00
2022-09-07T17:39:31.620Z,99666.19
2022-09-07T17:45:46.041Z,99669.44
2022-09-07T17:48:30.586Z,99656.25
2022-09-07T17:51:10.349Z,99684.63
2022-09-07T17:53:39.679Z,99706.00
2022-09-07T17:56:45.488Z,99660.38
2022-09-07T18:02:37.582Z,99673.03
2022-09-07T18:05:07.948Z,99697.38
2022-09-07T18:07:36.657Z,99685.09
2022-09-07T18:10:14.249Z,99679.06
2022-09-07T18:12:50.530Z,99693.66
2022-09-07T18:15:22.898Z,99653.16
2022-09-07T18:17:55.287Z,99714.50
2022-09-07T18:20:24.409Z,99713.00
2022-09-07T18:22:51.881Z,99691.56
2022-09-07T18:25:19.326Z,99673.16
2022-09-07T18:30:44.856Z,99688.88
2022-09-07T18:33:19.517Z,99696.47
2022-09-07T18:36:07.966Z,99661.69
2022-09-07T18:38:38.237Z,99658.59
2022-09-07T18:41:11.524Z,99672.59
2022-09-07T18:43:49.995Z,99657.75
2022-09-07T18:46:22.509Z,99677.34
2022-09-07T18:48:54.279Z,99695.66
2022-09-07T18:51:25.491Z,99709.69
2022-09-07T18:53:55.526Z,99691.03
2022-09-07T18:56:36.491Z,99704.78
2022-09-07T18:59:09.790Z,99709.84
2022-09-07T19:01:38.382Z,99711.06
2022-09-07T19:04:06.536Z,99694.34
2022-09-07T19:06:34.077Z,99706.63
2022-09-07T19:09:13.958Z,99724.63
2022-09-07T19:11:44.437Z,99728.41
2022-09-07T19:14:22.591Z,99685.88
2022-09-07T19:16:50.178Z,99711.47
2022-09-07T19:19:28.768Z,99696.34
2022-09-07T19:22:04.953Z,99702.41
2022-09-07T19:24:33.202Z,99708.00
2022-09-07T19:27:01.305Z,99697.53
2022-09-07T19:30:15.351Z,99724.88
2022-09-07T19:33:32.537Z,99703.94
2022-09-07T19:35:39.249Z,99701.63
2022-09-07T19:43:05.384Z,99723.53
2022-09-07T19:45:41.306Z,99696.91
2022-09-07T19:48:12.869Z,99682.06
2022-09-07T19:50:52.291Z,99726.16
2022-09-07T19:53:27.061Z,99742.44
2022-09-07T19:56:02.806Z,99725.78
2022-09-07T19:58:35.504Z,99699.88
2022-09-07T20:01:17.518Z,99712.47
2022-09-07T20:03:47.143Z,99721.66
2022-09-07T20:06:15.951Z,99717.28
2022-09-07T20:08:46.281Z,99707.47
2022-09-07T20:11:16.147Z,99712.72
2022-09-07T20:13:44.352Z,99722.50
2022-09-07T20:16:13.847Z,99708.22
2022-09-07T20:18:42.812Z,99705.81
2022-09-07T20:21:13.818Z,99705.13
2022-09-07T20:23:41.267Z,99705.28
2022-09-07T20:26:11.359Z,99684.69
2022-09-07T20:28:39.396Z,99687.22
2022-09-07T20:31:15.159Z,99715.94
2022-09-07T20:33:44.482Z,99682.31
2022-09-07T20:36:17.156Z,99710.03
2022-09-07T20:38:54.379Z,99700.66
2022-09-07T20:41:24.667Z,99713.91
2022-09-07T20:43:52.270Z,99702.41
2022-09-07T20:46:19.638Z,99711.19
2022-09-07T20:53:13.343Z,99708.59
2022-09-07T20:55:40.475Z,99716.28
2022-09-07T20:58:09.176Z,99707.63
2022-09-07T21:00:36.645Z,99712.81
2022-09-07T21:03:04.236Z,99709.50
2022-09-07T21:05:31.777Z,99737.88
2022-09-07T21:07:59.239Z,99721.31
2022-09-07T21:10:27.264Z,99718.09
2022-09-07T21:12:55.073Z,99741.44
2022-09-07T21:15:22.128Z,99721.66
2022-09-07T21:17:49.385Z,99709.91
2022-09-07T21:20:16.623Z,99698.00
2022-09-07T21:22:43.686Z,99711.53
2022-09-07T21:25:10.924Z,99720.13
2022-09-07T21:27:39.335Z,99727.56
2022-09-07T21:30:07.288Z,99721.94
2022-09-07T21:32:34.777Z,99713.22
2022-09-07T21:35:02.806Z,99728.50
2022-09-07T21:37:30.290Z,99723.94
2022-09-07T21:39:58.308Z,99689.75
2022-09-07T21:42:26.043Z,99715.25
2022-09-07T21:44:55.524Z,99717.63
2022-09-07T21:47:50.746Z,99724.38
2022-09-07T21:50:17.949Z,99713.56
2022-09-07T21:52:45.517Z,99701.16
2022-09-07T21:55:12.629Z,99712.41
2022-09-07T21:57:40.938Z,99721.00
2022-09-07T22:00:10.503Z,99715.00
2022-09-07T22:02:37.925Z,99706.31
2022-09-07T22:05:05.407Z,99723.72
2022-09-07T22:07:33.009Z,99705.88
2022-09-07T22:10:02.732Z,99722.00
2022-09-07T22:12:29.966Z,99708.19
2022-09-07T22:14:57.223Z,99721.69
2022-09-07T22:17:26.837Z,99719.22
2022-09-07T22:19:53.975Z,99720.31
2022-09-07T22:22:21.297Z,99717.38
2022-09-07T22:24:48.652Z,99714.75
2022-09-07T22:27:15.978Z,99716.88
2022-09-07T22:29:45.824Z,99710.03
2022-09-07T22:32:13.044Z,99707.41
2022-09-07T22:34:41.836Z,99732.75
2022-09-07T22:37:10.301Z,99701.81
2022-09-07T22:39:38.908Z,99716.09
2022-09-07T22:42:06.278Z,99693.53
2022-09-07T22:44:33.429Z,99720.47
2022-09-07T22:47:00.629Z,99697.19
2022-09-07T22:49:29.101Z,99747.34
2022-09-07T22:51:56.302Z,99707.81
2022-09-07T22:54:23.742Z,99718.47
2022-09-07T22:56:51.100Z,99690.88
2022-09-07T22:59:19.551Z,99708.34
2022-09-07T23:01:47.222Z,99748.09
2022-09-07T23:04:17.378Z,99741.50
2022-09-07T23:06:44.626Z,99728.75
2022-09-07T23:09:17.474Z,99720.75
2022-09-07T23:11:46.872Z,99698.03
2022-09-07T23:14:20.526Z,99705.88
2022-09-07T23:16:48.470Z,99724.63
2022-09-07T23:20:46.751Z,99740.75
2022-09-07T23:23:14.415Z,99748.69
2022-09-07T23:25:43.149Z,99730.78
2022-09-07T23:28:40.045Z,99745.25
2022-09-07T23:31:10.415Z,99737.41
2022-09-07T23:33:37.741Z,99752.75
2022-09-07T23:36:09.628Z,99723.72
2022-09-07T23:39:02.069Z,99749.03
2022-09-07T23:41:29.334Z,99757.91
2022-09-07T23:43:57.261Z,99719.97
2022-09-07T23:46:24.704Z,99738.91
2022-09-07T23:48:56.102Z,99752.56
2022-09-07T23:51:24.801Z,99736.44
2022-09-07T23:53:53.552Z,99722.69
2022-09-07T23:56:22.113Z,99734.59
2022-09-07T23:58:49.611Z,99724.31
